Time;durP1;ratioP1;P1;durP2;ratioP2;P2;SDS_P1;SDS_P2;PMS_P1;PMS_P2;Temp;Humidity;BMP_temperature;BMP_pressure;BME280_temperature;BME280_humidity;BME280_pressure;Samples;Min_cycle;Max_cycle;Signal;HPM_P1;HPM_P2
2023/02/26 00:02:04;;;;;;;5.72;2.72;;;0.20;1.00;;;;;;7358880;19;20036;-68
2023/02/26 00:04:37;;;;;;;6.00;2.30;;;0.20;1.00;;;;;;7359856;19;20336;-68
2023/02/26 00:07:06;;;;;;;4.78;2.15;;;0.20;1.00;;;;;;7359391;19;20354;-68
2023/02/26 00:09:36;;;;;;;4.68;2.42;;;0.10;1.00;;;;;;7358249;19;20015;-68
2023/02/26 00:12:07;;;;;;;5.10;2.78;;;0.00;1.00;;;;;;7380453;19;20010;-68
2023/02/26 00:14:37;;;;;;;4.43;2.30;;;0.10;1.00;;;;;;7358212;19;20020;-68
2023/02/26 00:17:25;;;;;;;5.22;2.58;;;0.00;1.00;;;;;;7360702;19;20541;-68
2023/02/26 00:19:58;;;;;;;3.38;2.30;;;-0.10;1.00;;;;;;7364417;19;20014;-68
2023/02/26 00:22:29;;;;;;;6.13;2.90;;;-0.10;1.00;;;;;;7366009;19;20011;-68
2023/02/26 00:24:59;;;;;;;4.95;2.28;;;-0.10;1.00;;;;;;7367827;19;20019;-68
2023/02/26 00:27:29;;;;;;;3.85;2.40;;;-0.20;1.00;;;;;;7365865;19;20019;-68
2023/02/26 00:29:59;;;;;;;3.67;2.17;;;-0.20;1.00;;;;;;7388111;19;20014;-68
2023/02/26 00:32:29;;;;;;;4.38;2.53;;;-0.30;1.00;;;;;;7365776;19;20019;-68
2023/02/26 00:35:04;;;;;;;4.78;2.65;;;-0.30;1.00;;;;;;7365357;19;20096;-68
2023/02/26 00:37:50;;;;;;;4.53;2.80;;;-0.30;1.00;;;;;;7364429;19;20024;-67
2023/02/26 00:40:25;;;;;;;4.53;2.63;;;-0.40;1.00;;;;;;7364178;19;20099;-68
2023/02/26 00:42:55;;;;;;;5.68;2.58;;;-0.40;1.00;;;;;;7364855;19;20470;-68
2023/02/26 00:45:26;;;;;;;7.15;2.90;;;-0.40;1.00;;;;;;7365399;19;20015;-68
2023/02/26 00:48:08;;;;;;;6.18;3.00;;;-0.50;1.00;;;;;;7390088;19;20466;-67
2023/02/26 00:50:48;;;;;;;7.65;3.20;;;-0.50;1.00;;;;;;7362149;19;20017;-67
2023/02/26 00:53:24;;;;;;;8.48;3.28;;;-0.60;1.00;;;;;;7364689;19;20015;-68
2023/02/26 00:55:53;;;;;;;6.85;2.90;;;-0.50;1.00;;;;;;7364729;19;20319;-68
2023/02/26 00:58:23;;;;;;;3.88;2.60;;;-0.60;1.00;;;;;;7364001;19;20021;-68
2023/02/26 01:00:53;;;;;;;4.63;2.63;;;-0.60;1.00;;;;;;7362854;19;20025;-68
2023/02/26 01:03:23;;;;;;;4.60;2.35;;;-0.60;1.00;;;;;;7364572;19;20018;-68
2023/02/26 01:05:56;;;;;;;6.80;2.63;;;-0.70;1.00;;;;;;7385847;19;20011;-68
2023/02/26 01:08:34;;;;;;;5.70;2.90;;;-0.70;1.00;;;;;;7363965;19;20018;-68
2023/02/26 01:11:04;;;;;;;3.60;2.55;;;-0.80;1.00;;;;;;7363378;19;20077;-67
2023/02/26 01:13:34;;;;;;;5.75;2.67;;;-0.90;1.00;;;;;;7366217;19;20486;-67
2023/02/26 01:16:09;;;;;;;5.28;2.80;;;-0.90;1.00;;;;;;7364370;19;20022;-67
2023/02/26 01:18:44;;;;;;;5.43;3.08;;;-0.90;1.00;;;;;;7363949;19;20028;-68
2023/02/26 01:21:20;;;;;;;4.47;2.42;;;-0.90;1.00;;;;;;7389653;19;20007;-68
2023/02/26 01:23:53;;;;;;;5.95;2.63;;;-0.90;1.00;;;;;;7364009;19;20087;-68
2023/02/26 01:26:28;;;;;;;4.93;2.83;;;-0.90;1.00;;;;;;7363441;19;20203;-68
2023/02/26 01:28:58;;;;;;;6.20;2.80;;;-1.00;1.00;;;;;;7363607;19;20022;-68
2023/02/26 01:31:39;;;;;;;4.40;2.40;;;-1.00;1.00;;;;;;7362879;19;20014;-68
2023/02/26 01:34:17;;;;;;;5.38;2.75;;;-1.00;1.00;;;;;;7363687;19;20334;-68
2023/02/26 01:36:55;;;;;;;5.18;2.70;;;-1.00;1.00;;;;;;7363797;19;20014;-68
2023/02/26 01:39:32;;;;;;;5.15;2.28;;;-1.10;1.00;;;;;;7362115;19;20078;-67
2023/02/26 01:42:11;;;;;;;4.47;2.35;;;-1.10;1.00;;;;;;7384413;19;20026;-67
2023/02/26 01:44:49;;;;;;;9.77;3.28;;;-1.10;1.00;;;;;;7363728;19;20078;-67
2023/02/26 01:47:23;;;;;;;6.50;3.13;;;-1.10;1.00;;;;;;7365444;19;20014;-67
2023/02/26 01:49:54;;;;;;;3.78;2.50;;;-1.10;1.00;;;;;;7362034;19;20078;-67
2023/02/26 01:53:05;;;;;;;6.40;2.80;;;-1.10;1.00;;;;;;7362455;19;20017;-68
2023/02/26 01:55:38;;;;;;;5.03;2.45;;;-1.20;1.00;;;;;;7361360;19;20033;-68
2023/02/26 01:58:08;;;;;;;4.53;2.47;;;-1.10;1.00;;;;;;7362933;19;20015;-68
2023/02/26 02:00:37;;;;;;;6.40;2.35;;;-1.20;1.00;;;;;;7361160;19;20033;-68
2023/02/26 02:03:07;;;;;;;4.80;2.38;;;-1.20;1.00;;;;;;7384170;19;20025;-68
2023/02/26 02:05:43;;;;;;;5.03;2.25;;;-1.20;1.00;;;;;;7362114;19;20014;-68
2023/02/26 02:08:14;;;;;;;3.97;2.15;;;-1.20;1.00;;;;;;7362528;19;20412;-68
2023/02/26 02:10:49;;;;;;;5.10;2.40;;;-1.20;1.00;;;;;;7361978;19;20040;-68
2023/02/26 02:13:31;;;;;;;6.30;2.33;;;-1.30;1.00;;;;;;7363261;19;20018;-68
2023/02/26 02:16:10;;;;;;;4.25;2.90;;;-1.30;1.00;;;;;;7362719;19;20018;-68
2023/02/26 02:18:48;;;;;;;4.68;3.00;;;-1.30;1.00;;;;;;7364062;19;20478;-68
2023/02/26 02:21:35;;;;;;;7.28;2.53;;;-1.30;1.00;;;;;;7365744;19;20109;-68
2023/02/26 02:24:13;;;;;;;6.20;3.13;;;-1.40;1.00;;;;;;7383821;19;20022;-68
2023/02/26 02:26:58;;;;;;;5.72;3.15;;;-1.40;1.00;;;;;;7361546;19;20026;-68
2023/02/26 02:30:01;;;;;;;4.20;2.20;;;-1.40;1.00;;;;;;7362336;19;20014;-68
2023/02/26 02:32:40;;;;;;;5.28;2.70;;;-1.40;1.00;;;;;;7360369;19;20103;-68
2023/02/26 02:35:16;;;;;;;3.53;2.35;;;-1.50;1.00;;;;;;7361705;19;20018;-68
2023/02/26 02:37:52;;;;;;;3.90;2.20;;;-1.50;1.00;;;;;;7360923;19;20015;-68
2023/02/26 02:40:25;;;;;;;6.50;2.53;;;-1.40;1.00;;;;;;7358378;19;20011;-68
2023/02/26 02:43:00;;;;;;;4.90;2.55;;;-1.40;1.00;;;;;;7361844;19;20052;-68
2023/02/26 02:45:32;;;;;;;;;;;-1.40;1.00;;;;;;7362784;19;20010;-68
2023/02/26 02:48:11;;;;;;;5.80;2.55;;;-1.50;1.00;;;;;;7386463;19;19929;-68
2023/02/26 02:50:45;;;;;;;3.78;2.35;;;-1.50;1.00;;;;;;7358951;19;20018;-68
2023/02/26 02:53:20;;;;;;;3.95;2.30;;;-1.50;1.00;;;;;;7359225;19;20018;-68
2023/02/26 02:55:52;;;;;;;;;;;-1.50;1.00;;;;;;7361815;19;20014;-68
2023/02/26 02:58:26;;;;;;;5.03;2.80;;;-1.50;1.00;;;;;;7360720;19;19954;-68
2023/02/26 03:00:59;;;;;;;;;;;-1.50;1.00;;;;;;7362137;19;20014;-68
2023/02/26 03:03:38;;;;;;;4.78;2.90;;;-1.50;1.00;;;;;;7359940;19;19914;-67
2023/02/26 03:06:08;;;;;;;6.35;2.85;;;-1.60;1.00;;;;;;7382099;19;20019;-67
2023/02/26 03:08:42;;;;;;;5.88;3.17;;;-1.50;1.00;;;;;;7359735;19;20011;-67
2023/02/26 03:11:13;;;;;;;9.13;3.50;;;-1.60;1.00;;;;;;7360611;19;20534;-67
2023/02/26 03:13:43;;;;;;;8.18;3.40;;;-1.60;1.00;;;;;;7361771;19;20010;-68
2023/02/26 03:16:27;;;;;;;7.75;3.17;;;-1.60;1.00;;;;;;7363647;19;20011;-68
2023/02/26 03:19:09;;;;;;;9.20;3.13;;;-1.70;1.00;;;;;;7359594;19;20014;-67
2023/02/26 03:21:46;;;;;;;6.50;3.15;;;-1.70;1.00;;;;;;7363447;19;20011;-68
2023/02/26 03:24:20;;;;;;;6.95;2.80;;;-1.70;1.00;;;;;;7371950;19;20074;-68
2023/02/26 03:26:58;;;;;;;6.20;3.00;;;-1.70;1.00;;;;;;7381937;19;20014;-68
2023/02/26 03:29:35;;;;;;;6.18;2.88;;;-1.80;1.00;;;;;;7361068;19;20018;-68
2023/02/26 03:32:09;;;;;;;7.97;3.42;;;-1.80;1.00;;;;;;7359090;19;20025;-68
2023/02/26 03:34:43;;;;;;;;;;;-1.80;1.00;;;;;;7360933;19;20102;-68
2023/02/26 03:37:19;;;;;;;7.88;2.97;;;-1.80;1.00;;;;;;7359445;19;19918;-68
2023/02/26 03:39:52;;;;;;;5.65;3.03;;;-1.90;1.00;;;;;;7358563;19;20011;-68
2023/02/26 03:42:26;;;;;;;5.43;3.40;;;-1.90;1.00;;;;;;7359082;19;20429;-68
2023/02/26 03:44:59;;;;;;;7.88;3.10;;;-1.80;1.00;;;;;;7381004;19;20086;-68
2023/02/26 03:47:30;;;;;;;9.02;3.15;;;-1.80;1.00;;;;;;7361608;19;20042;-68
2023/02/26 03:50:07;;;;;;;7.63;3.08;;;-1.90;1.00;;;;;;7358161;19;20089;-68
2023/02/26 03:52:41;;;;;;;6.15;3.15;;;-1.90;1.00;;;;;;7362816;19;20022;-68
2023/02/26 03:55:14;;;;;;;5.53;3.10;;;-1.90;1.00;;;;;;7367200;19;20014;-68
2023/02/26 03:57:45;;;;;;;7.65;3.65;;;-1.90;1.00;;;;;;7367224;19;20016;-68
2023/02/26 04:00:16;;;;;;;7.85;3.60;;;-1.90;1.00;;;;;;7383787;19;20086;-68
2023/02/26 04:02:56;;;;;;;11.45;3.15;;;-2.00;1.00;;;;;;7387997;19;20070;-68
2023/02/26 04:05:30;;;;;;;5.47;2.92;;;-2.00;1.00;;;;;;7366331;19;20014;-68
2023/02/26 04:08:00;;;;;;;5.03;2.55;;;-1.90;1.00;;;;;;7366434;19;20018;-68
2023/02/26 04:10:35;;;;;;;7.07;3.35;;;-2.00;1.00;;;;;;7367250;19;20035;-68
2023/02/26 04:13:05;;;;;;;6.05;3.20;;;-1.90;1.00;;;;;;7368434;19;20359;-68
2023/02/26 04:15:35;;;;;;;5.70;2.50;;;-2.00;1.00;;;;;;7366450;19;20019;-68
2023/02/26 04:18:05;;;;;;;8.38;3.38;;;-2.00;1.00;;;;;;7391426;19;20029;-68
2023/02/26 04:20:37;;;;;;;7.00;3.40;;;-2.00;1.00;;;;;;7362944;19;20014;-68
2023/02/26 04:23:07;;;;;;;7.35;3.10;;;-2.10;1.00;;;;;;7365620;19;20034;-68
2023/02/26 04:25:37;;;;;;;7.85;3.45;;;-2.10;1.00;;;;;;7366135;19;20010;-68
2023/02/26 04:28:07;;;;;;;8.30;3.63;;;-2.10;1.00;;;;;;7365695;19;20026;-68
2023/02/26 04:30:37;;;;;;;8.35;3.35;;;-2.10;1.00;;;;;;7367313;19;20039;-68
2023/02/26 04:33:07;;;;;;;5.50;2.90;;;-2.20;1.00;;;;;;7386342;19;20082;-67
2023/02/26 04:35:39;;;;;;;4.68;2.85;;;-2.20;1.00;;;;;;7365307;19;20018;-68
2023/02/26 04:38:09;;;;;;;5.72;3.47;;;-2.20;1.00;;;;;;7364916;19;20022;-67
2023/02/26 04:40:39;;;;;;;6.80;3.13;;;-2.20;1.00;;;;;;7364461;19;20058;-67
2023/02/26 04:43:09;;;;;;;4.90;3.30;;;-2.20;1.00;;;;;;7365050;19;20119;-67
2023/02/26 04:45:39;;;;;;;10.02;3.90;;;-2.20;1.00;;;;;;7364598;19;20489;-67
2023/02/26 04:48:08;;;;;;;5.53;2.97;;;-2.20;1.00;;;;;;7390455;19;20474;-67
2023/02/26 04:50:41;;;;;;;5.50;3.05;;;-2.30;1.00;;;;;;7362210;19;20011;-67
2023/02/26 04:53:11;;;;;;;5.65;3.28;;;-2.30;1.00;;;;;;7363737;19;20014;-68
2023/02/26 04:55:42;;;;;;;7.43;3.40;;;-2.30;1.00;;;;;;7365063;19;20010;-68
2023/02/26 04:58:11;;;;;;;5.22;2.83;;;-2.40;1.00;;;;;;7365071;19;20043;-68
2023/02/26 05:00:41;;;;;;;4.43;3.20;;;-2.30;1.00;;;;;;7362765;19;20019;-68
2023/02/26 05:03:12;;;;;;;4.72;3.15;;;-2.30;1.00;;;;;;7385043;19;20062;-67
2023/02/26 05:05:45;;;;;;;8.13;3.50;;;-2.40;1.20;;;;;;7367604;19;20009;-68
2023/02/26 05:08:15;;;;;;;7.80;3.03;;;-2.40;1.00;;;;;;7364286;19;20013;-68
2023/02/26 05:10:44;;;;;;;7.30;3.50;;;-2.30;1.00;;;;;;7363588;19;20035;-67
2023/02/26 05:13:14;;;;;;;6.65;3.38;;;-2.30;1.00;;;;;;7365687;19;20034;-67
2023/02/26 05:15:44;;;;;;;8.07;3.05;;;-2.30;1.00;;;;;;7367063;19;20024;-67
2023/02/26 05:18:14;;;;;;;9.45;3.25;;;-2.30;1.00;;;;;;7385199;19;20581;-67
2023/02/26 05:20:46;;;;;;;6.05;3.20;;;-2.30;1.00;;;;;;7361974;19;20014;-68
2023/02/26 05:23:16;;;;;;;6.53;2.92;;;-2.30;1.00;;;;;;7363536;19;20026;-68
2023/02/26 05:25:46;;;;;;;4.47;3.17;;;-2.30;1.00;;;;;;7364446;19;20115;-68
2023/02/26 05:28:16;;;;;;;8.23;2.97;;;-2.30;1.00;;;;;;7363713;19;20010;-68
2023/02/26 05:30:46;;;;;;;6.28;3.10;;;-2.30;1.00;;;;;;7361383;19;20014;-67
2023/02/26 05:33:16;;;;;;;10.20;3.42;;;-2.40;1.00;;;;;;7371762;19;20014;-68
2023/02/26 05:35:49;;;;;;;5.50;3.45;;;-2.40;1.00;;;;;;7385376;19;20018;-68
2023/02/26 05:38:19;;;;;;;4.72;3.08;;;-2.40;1.00;;;;;;7362718;19;20018;-68
2023/02/26 05:40:49;;;;;;;6.53;3.10;;;-2.50;1.00;;;;;;7362994;19;20017;-67
2023/02/26 05:43:19;;;;;;;8.55;3.20;;;-2.50;1.90;;;;;;7363362;19;20014;-68
2023/02/26 05:45:50;;;;;;;6.53;3.63;;;-2.50;2.50;;;;;;7362893;19;20015;-68
2023/02/26 05:48:21;;;;;;;7.07;3.75;;;-2.60;2.20;;;;;;7366514;19;20018;-68
2023/02/26 05:50:54;;;;;;;7.13;3.30;;;-2.60;2.60;;;;;;7382633;19;20097;-68
2023/02/26 05:53:23;;;;;;;8.20;3.85;;;-2.50;2.50;;;;;;7362707;19;20034;-68
2023/02/26 05:55:54;;;;;;;4.88;2.88;;;-2.60;1.80;;;;;;7362365;19;20825;-68
2023/02/26 05:58:24;;;;;;;5.05;3.15;;;-2.60;2.10;;;;;;7362689;19;20014;-68
2023/02/26 06:00:54;;;;;;;6.53;3.60;;;-2.60;2.90;;;;;;7362662;19;20014;-67
2023/02/26 06:03:24;;;;;;;5.60;3.38;;;-2.60;2.70;;;;;;7366038;19;20021;-68
2023/02/26 06:05:57;;;;;;;7.18;3.17;;;-2.70;3.60;;;;;;7386024;19;20025;-68
2023/02/26 06:08:26;;;;;;;7.65;4.18;;;-2.60;4.10;;;;;;7363422;19;20014;-67
2023/02/26 06:10:56;;;;;;;9.25;3.47;;;-2.70;3.60;;;;;;7365384;19;20420;-68
2023/02/26 06:13:26;;;;;;;5.03;3.00;;;-2.60;4.10;;;;;;7369479;19;20463;-68
2023/02/26 06:15:56;;;;;;;9.43;3.58;;;-2.70;4.10;;;;;;7380537;19;20110;-68
2023/02/26 06:18:26;;;;;;;5.90;3.80;;;-2.60;4.00;;;;;;7384418;19;20419;-68
2023/02/26 06:20:58;;;;;;;5.80;3.20;;;-2.60;4.10;;;;;;7402938;19;20017;-68
2023/02/26 06:23:28;;;;;;;6.53;3.35;;;-2.60;3.90;;;;;;7370971;19;20018;-68
2023/02/26 06:25:58;;;;;;;7.20;3.80;;;-2.60;3.60;;;;;;7369120;19;20158;-67
2023/02/26 06:28:28;;;;;;;6.03;3.55;;;-2.50;3.10;;;;;;7362437;19;20561;-67
2023/02/26 06:30:58;;;;;;;9.48;4.50;;;-2.50;2.00;;;;;;7362579;19;20026;-69
2023/02/26 06:33:28;;;;;;;9.50;3.45;;;-2.40;2.40;;;;;;7361377;19;20011;-66
2023/02/26 06:36:01;;;;;;;6.50;3.38;;;-2.30;1.90;;;;;;7382801;19;20625;-69
2023/02/26 06:38:31;;;;;;;7.25;3.50;;;-2.20;1.00;;;;;;7360915;19;20040;-69
2023/02/26 06:41:01;;;;;;;10.20;3.80;;;-2.10;1.00;;;;;;7361215;19;20073;-68
2023/02/26 06:43:30;;;;;;;6.97;3.80;;;-2.10;1.00;;;;;;7362020;19;20014;-68
2023/02/26 06:46:01;;;;;;;5.15;3.08;;;-2.00;1.00;;;;;;7362302;19;20106;-68
2023/02/26 06:48:32;;;;;;;6.80;3.33;;;-2.00;1.00;;;;;;7365060;19;20482;-68
2023/02/26 06:51:04;;;;;;;5.28;3.35;;;-1.90;1.00;;;;;;7382623;19;20043;-69
2023/02/26 06:53:36;;;;;;;;;;;-1.90;1.00;;;;;;7361596;19;20081;-67
2023/02/26 06:56:06;;;;;;;6.32;2.97;;;-1.90;1.00;;;;;;7360957;19;19925;-68
2023/02/26 06:58:36;;;;;;;7.45;3.17;;;-1.90;1.00;;;;;;7363504;19;20498;-69
2023/02/26 07:01:06;;;;;;;8.23;3.25;;;-1.90;1.00;;;;;;7363911;19;20094;-69
2023/02/26 07:03:36;;;;;;;6.25;3.50;;;-1.90;1.00;;;;;;7361767;19;19999;-69
2023/02/26 07:06:09;;;;;;;4.82;3.30;;;-1.70;1.00;;;;;;7385337;19;20014;-68
2023/02/26 07:08:57;;;;;;;6.97;2.88;;;-1.80;1.00;;;;;;7360666;19;20079;-68
2023/02/26 07:11:27;;;;;;;7.05;3.42;;;-1.70;1.00;;;;;;7360756;19;20010;-68
2023/02/26 07:13:57;;;;;;;4.15;3.00;;;-1.60;1.00;;;;;;7360546;19;20119;-67
2023/02/26 07:16:26;;;;;;;5.15;3.25;;;-1.60;1.00;;;;;;7360642;19;20014;-67
2023/02/26 07:18:57;;;;;;;8.65;3.10;;;-1.70;1.00;;;;;;7360024;19;20360;-69
2023/02/26 07:21:29;;;;;;;5.78;3.03;;;-1.60;1.00;;;;;;7360139;19;20025;-68
2023/02/26 07:23:59;;;;;;;8.82;3.10;;;-1.40;1.00;;;;;;7382003;19;20018;-68
2023/02/26 07:26:28;;;;;;;5.25;2.72;;;-1.40;1.00;;;;;;7363752;19;20411;-68
2023/02/26 07:28:58;;;;;;;5.93;2.83;;;-1.40;1.00;;;;;;7367529;19;20015;-67
2023/02/26 07:31:28;;;;;;;6.70;3.20;;;-1.20;1.00;;;;;;7367615;19;20024;-67
2023/02/26 07:33:58;;;;;;;4.57;3.17;;;-1.10;1.00;;;;;;7367927;19;20102;-67
2023/02/26 07:36:31;;;;;;;5.47;3.22;;;-1.10;1.00;;;;;;7367447;19;20632;-67
2023/02/26 07:39:01;;;;;;;5.85;2.85;;;-1.20;1.00;;;;;;7387948;19;20484;-67
2023/02/26 07:41:30;;;;;;;8.77;3.22;;;-1.10;1.00;;;;;;7366826;19;20352;-68
2023/02/26 07:44:00;;;;;;;5.95;3.53;;;-1.00;1.00;;;;;;7367127;19;20011;-67
2023/02/26 07:46:30;;;;;;;4.90;2.53;;;-1.00;1.00;;;;;;7367693;19;20848;-68
2023/02/26 07:49:00;;;;;;;7.22;2.75;;;-1.10;1.00;;;;;;7366351;19;20014;-67
2023/02/26 07:51:32;;;;;;;5.88;2.55;;;-1.00;1.00;;;;;;7367279;19;20010;-67
2023/02/26 07:54:02;;;;;;;12.70;2.90;;;-0.90;1.00;;;;;;7390741;19;20102;-68
2023/02/26 07:56:32;;;;;;;6.88;3.15;;;-1.00;1.00;;;;;;7369401;19;20019;-68
2023/02/26 07:59:02;;;;;;;7.43;2.90;;;-0.90;1.00;;;;;;7364735;19;20015;-68
2023/02/26 08:01:31;;;;;;;3.88;2.70;;;-0.80;1.00;;;;;;7367936;19;20011;-68
2023/02/26 08:04:01;;;;;;;8.00;2.60;;;-0.80;1.00;;;;;;7370687;19;20484;-68
2023/02/26 08:06:34;;;;;;;4.43;2.90;;;-0.90;1.00;;;;;;7366915;19;20074;-68
2023/02/26 08:09:04;;;;;;;5.47;2.83;;;-1.00;1.00;;;;;;7386808;19;20351;-69
2023/02/26 08:11:38;;;;;;;6.07;2.30;;;-0.90;1.00;;;;;;7366379;19;20011;-68
2023/02/26 08:14:08;;;;;;;11.18;2.72;;;-0.90;1.00;;;;;;7365740;19;20013;-69
2023/02/26 08:16:38;;;;;;;4.55;2.72;;;-0.70;1.00;;;;;;7365050;19;20073;-68
2023/02/26 08:19:08;;;;;;;4.88;2.30;;;-0.60;1.00;;;;;;7365361;19;20018;-68
2023/02/26 08:21:40;;;;;;;4.57;2.08;;;-0.70;1.00;;;;;;7365854;19;20018;-66
2023/02/26 08:24:12;;;;;;;7.80;2.63;;;-0.70;1.00;;;;;;7387208;19;20535;-68
2023/02/26 08:26:41;;;;;;;4.20;2.10;;;-0.50;1.00;;;;;;7365287;19;20018;-68
2023/02/26 08:29:11;;;;;;;4.97;2.20;;;-0.40;1.00;;;;;;7365725;19;20011;-68
2023/02/26 08:31:41;;;;;;;7.45;2.35;;;-0.30;1.00;;;;;;7365645;19;20747;-68
2023/02/26 08:34:11;;;;;;;5.07;2.30;;;0.00;1.00;;;;;;7365763;19;20019;-68
2023/02/26 08:36:43;;;;;;;8.15;2.55;;;-0.20;1.00;;;;;;7362643;19;20481;-68
2023/02/26 08:39:13;;;;;;;3.83;2.50;;;0.20;1.00;;;;;;7384522;19;20615;-67
2023/02/26 08:41:43;;;;;;;5.00;1.52;;;0.30;1.00;;;;;;7365187;19;20014;-68
2023/02/26 08:44:13;;;;;;;7.80;2.35;;;0.20;1.00;;;;;;7365060;19;20070;-68
2023/02/26 08:46:43;;;;;;;10.38;4.18;;;0.30;1.00;;;;;;7366721;19;20043;-68
2023/02/26 08:49:12;;;;;;;3.03;1.90;;;0.20;1.00;;;;;;7362588;19;20058;-68
2023/02/26 08:51:45;;;;;;;4.40;2.03;;;0.40;1.00;;;;;;7367455;19;20020;-68
2023/02/26 08:54:15;;;;;;;4.07;1.88;;;0.20;1.00;;;;;;7386531;19;20081;-67
2023/02/26 08:56:45;;;;;;;3.92;1.85;;;0.10;1.00;;;;;;7363207;19;20014;-68
2023/02/26 08:59:15;;;;;;;2.53;1.30;;;-0.10;1.00;;;;;;7366372;19;20014;-67
2023/02/26 09:01:45;;;;;;;5.15;1.95;;;0.00;1.00;;;;;;7364948;19;20010;-69
2023/02/26 09:04:15;;;;;;;7.70;2.25;;;-0.20;1.00;;;;;;7364960;19;20011;-67
2023/02/26 09:06:47;;;;;;;2.83;1.58;;;-0.30;1.00;;;;;;7364924;19;20031;-67
2023/02/26 09:09:18;;;;;;;5.90;2.28;;;-0.30;1.00;;;;;;7370479;19;20014;-68
2023/02/26 09:11:47;;;;;;;3.60;2.13;;;-0.10;1.00;;;;;;7387491;19;20541;-68
2023/02/26 09:14:17;;;;;;;2.83;1.73;;;0.00;1.00;;;;;;7364039;19;20109;-68
2023/02/26 09:16:47;;;;;;;3.58;2.08;;;-0.30;1.00;;;;;;7363653;19;20062;-67
2023/02/26 09:19:20;;;;;;;4.88;1.60;;;-0.40;1.00;;;;;;7363572;19;20055;-68
2023/02/26 09:21:52;;;;;;;5.05;2.75;;;-0.40;1.00;;;;;;7364046;19;20492;-68
2023/02/26 09:24:22;;;;;;;3.97;1.70;;;-0.10;1.00;;;;;;7363504;19;20017;-68
2023/02/26 09:26:52;;;;;;;3.80;2.00;;;-0.30;1.00;;;;;;7386044;19;20034;-68
2023/02/26 09:29:22;;;;;;;4.32;1.90;;;-0.10;1.00;;;;;;7364879;19;20019;-68
2023/02/26 09:31:52;;;;;;;3.95;2.10;;;-0.10;1.00;;;;;;7364317;19;20032;-68
2023/02/26 09:34:22;;;;;;;4.25;2.13;;;-0.40;1.00;;;;;;7364215;19;20010;-68
2023/02/26 09:36:54;;;;;;;7.28;2.35;;;-0.50;1.00;;;;;;7362822;19;20014;-67
2023/02/26 09:39:24;;;;;;;3.95;2.65;;;-0.40;1.00;;;;;;7362887;19;20021;-68
2023/02/26 09:41:57;;;;;;;5.43;2.85;;;-0.40;1.00;;;;;;7387241;19;20039;-68
2023/02/26 09:44:28;;;;;;;6.90;2.03;;;-0.30;1.00;;;;;;7363531;19;20091;-68
2023/02/26 09:47:03;;;;;;;3.28;2.15;;;-0.40;1.00;;;;;;7365255;19;20010;-68
2023/02/26 09:49:44;;;;;;;4.45;2.10;;;-0.40;1.00;;;;;;7374914;19;20101;-68
2023/02/26 09:52:23;;;;;;;6.43;2.10;;;-0.50;1.00;;;;;;7381780;19;20015;-67
2023/02/26 09:55:00;;;;;;;4.15;2.42;;;-0.50;1.00;;;;;;7376908;19;20014;-66
2023/02/26 09:57:33;;;;;;;2.92;1.70;;;-0.40;1.00;;;;;;7365489;19;20024;-68
2023/02/26 10:00:04;;;;;;;4.00;1.98;;;-0.30;1.00;;;;;;7383251;19;20018;-68
2023/02/26 10:02:40;;;;;;;6.38;2.08;;;-0.20;1.00;;;;;;7363758;19;20041;-68
2023/02/26 10:05:20;;;;;;;3.33;1.90;;;0.00;1.00;;;;;;7362741;19;20022;-68
2023/02/26 10:07:58;;;;;;;3.05;1.85;;;-0.10;1.00;;;;;;7362077;19;20557;-70
2023/02/26 10:10:36;;;;;;;8.20;2.63;;;-0.10;1.00;;;;;;7361497;19;20709;-67
2023/02/26 10:13:06;;;;;;;3.45;2.03;;;0.20;1.00;;;;;;7364439;19;20085;-68
2023/02/26 10:15:40;;;;;;;4.63;1.92;;;0.20;1.00;;;;;;7362627;19;20087;-67
2023/02/26 10:18:16;;;;;;;5.22;2.35;;;0.30;1.00;;;;;;7383932;19;20090;-67
2023/02/26 10:20:55;;;;;;;5.22;2.35;;;0.50;1.00;;;;;;7360102;19;20047;-68
2023/02/26 10:23:33;;;;;;;4.18;1.90;;;0.80;1.00;;;;;;7361640;19;20082;-68
2023/02/26 10:26:09;;;;;;;6.63;2.28;;;0.70;1.00;;;;;;7361829;19;20011;-67
2023/02/26 10:28:55;;;;;;;2.40;1.75;;;0.90;1.00;;;;;;7361671;19;20065;-68
2023/02/26 10:31:31;;;;;;;4.65;2.20;;;0.80;1.00;;;;;;7361700;19;20482;-68
2023/02/26 10:34:12;;;;;;;3.70;2.22;;;0.90;1.00;;;;;;7361649;19;20026;-67
2023/02/26 10:36:50;;;;;;;2.72;1.60;;;0.90;1.00;;;;;;7361197;19;20114;-67
2023/02/26 10:39:31;;;;;;;3.90;2.20;;;0.90;1.00;;;;;;7360228;19;20014;-68
2023/02/26 10:42:17;;;;;;;2.88;1.33;;;0.90;1.00;;;;;;7383795;19;20018;-68
2023/02/26 10:44:56;;;;;;;2.80;1.70;;;0.90;1.00;;;;;;7364306;19;20028;-69
2023/02/26 10:47:37;;;;;;;3.55;1.92;;;0.90;1.00;;;;;;7362888;19;20086;-67
2023/02/26 10:50:11;;;;;;;2.00;1.40;;;1.20;1.00;;;;;;7361022;19;20086;-67
2023/02/26 10:52:45;;;;;;;4.25;1.52;;;1.20;1.00;;;;;;7362944;19;20050;-67
2023/02/26 10:55:36;;;;;;;2.85;1.60;;;1.10;1.00;;;;;;7361535;19;20017;-67
2023/02/26 10:58:10;;;;;;;5.32;2.50;;;1.10;1.00;;;;;;7359345;19;20394;-67
2023/02/26 11:00:42;;;;;;;2.13;1.42;;;1.20;1.00;;;;;;7358184;19;20125;-68
2023/02/26 11:03:18;;;;;;;2.75;2.28;;;1.00;1.00;;;;;;7382422;19;20022;-68
2023/02/26 11:05:49;;;;;;;3.72;2.45;;;1.10;1.00;;;;;;7360695;19;20014;-68
2023/02/26 11:08:25;;;;;;;2.42;1.52;;;1.10;1.00;;;;;;7358538;19;20035;-68
2023/02/26 11:10:59;;;;;;;2.63;1.98;;;1.30;1.00;;;;;;7360044;19;20007;-68
2023/02/26 11:13:31;;;;;;;1.80;1.50;;;1.30;1.00;;;;;;7362675;19;20011;-68
2023/02/26 11:16:04;;;;;;;5.45;2.55;;;1.40;1.00;;;;;;7360569;19;20097;-67
2023/02/26 11:18:42;;;;;;;2.50;1.92;;;1.40;1.00;;;;;;7359921;19;20021;-68
2023/02/26 11:21:19;;;;;;;4.03;2.15;;;1.50;1.00;;;;;;7381536;19;20090;-67
2023/02/26 11:23:50;;;;;;;1.60;0.93;;;1.70;1.00;;;;;;7360202;19;20078;-68
2023/02/26 11:26:28;;;;;;;4.25;1.48;;;1.50;1.00;;;;;;7359689;19;20020;-68
2023/02/26 11:29:00;;;;;;;2.15;1.60;;;1.50;1.00;;;;;;7360054;19;20022;-68
2023/02/26 11:31:31;;;;;;;2.40;1.20;;;1.60;1.00;;;;;;7360135;19;20017;-67
2023/02/26 11:34:04;;;;;;;3.17;1.75;;;1.50;1.00;;;;;;7360437;19;20017;-67
2023/02/26 11:36:35;;;;;;;1.50;1.20;;;1.70;1.00;;;;;;7359868;19;20361;-67
2023/02/26 11:39:09;;;;;;;2.85;1.10;;;1.60;1.00;;;;;;7382505;19;20015;-67
2023/02/26 11:41:43;;;;;;;1.95;1.67;;;1.50;1.00;;;;;;7362252;19;20010;-67
2023/02/26 11:44:17;;;;;;;2.60;1.60;;;1.80;1.00;;;;;;7359356;19;20010;-67
2023/02/26 11:46:52;;;;;;;2.92;1.80;;;1.80;1.00;;;;;;7360545;19;20489;-67
2023/02/26 11:49:25;;;;;;;1.67;1.23;;;1.90;1.00;;;;;;7360277;19;20017;-68
2023/02/26 11:52:07;;;;;;;2.08;1.30;;;1.80;1.00;;;;;;7359982;19;20011;-68
2023/02/26 11:54:39;;;;;;;1.88;1.00;;;1.80;1.00;;;;;;7359414;19;20813;-67
2023/02/26 11:57:19;;;;;;;2.30;1.30;;;1.70;1.00;;;;;;7380673;19;20019;-69
2023/02/26 11:59:52;;;;;;;2.20;1.60;;;1.70;1.00;;;;;;7356881;19;20014;-68
2023/02/26 12:02:24;;;;;;;1.45;0.80;;;1.90;1.00;;;;;;7358593;19;20018;-68
2023/02/26 12:04:56;;;;;;;1.60;1.13;;;1.60;1.00;;;;;;7358660;19;20015;-68
2023/02/26 12:07:26;;;;;;;2.08;1.20;;;1.70;1.00;;;;;;7358089;19;20014;-68
2023/02/26 12:09:56;;;;;;;2.30;1.25;;;1.60;1.00;;;;;;7358253;19;20017;-69
2023/02/26 12:12:40;;;;;;;2.92;1.55;;;1.70;1.00;;;;;;7361684;19;20473;-68
2023/02/26 12:15:24;;;;;;;1.70;0.95;;;1.70;1.00;;;;;;7387762;19;20026;-67
2023/02/26 12:18:10;;;;;;;1.60;1.20;;;1.60;1.00;;;;;;7364367;19;20500;-68
2023/02/26 12:20:49;;;;;;;1.52;1.00;;;1.90;1.00;;;;;;7363821;19;20014;-67
2023/02/26 12:23:39;;;;;;;1.27;1.13;;;1.70;1.00;;;;;;7365585;19;20011;-68
2023/02/26 12:26:27;;;;;;;1.10;0.82;;;1.70;1.00;;;;;;7365349;19;20014;-68
2023/02/26 12:29:23;;;;;;;2.10;1.40;;;1.90;1.00;;;;;;7365584;19;20018;-67
2023/02/26 12:32:08;;;;;;;2.50;1.40;;;1.90;1.00;;;;;;7365772;19;20074;-68
2023/02/26 12:35:11;;;;;;;2.25;1.38;;;1.90;1.00;;;;;;7367159;19;20035;-68
2023/02/26 12:37:51;;;;;;;3.05;1.42;;;1.80;1.00;;;;;;7364731;19;20025;-68
2023/02/26 12:40:49;;;;;;;2.20;1.20;;;1.80;1.00;;;;;;7363131;19;20482;-69
2023/02/26 12:43:28;;;;;;;1.95;1.38;;;1.70;1.00;;;;;;7366638;19;20021;-67
2023/02/26 12:46:07;;;;;;;1.75;1.00;;;1.70;1.00;;;;;;7368060;19;20030;-67
2023/02/26 12:48:58;;;;;;;1.65;1.25;;;1.60;1.00;;;;;;7364390;19;20118;-67
2023/02/26 12:51:45;;;;;;;1.92;1.10;;;1.60;1.00;;;;;;7364834;19;20351;-67
2023/02/26 12:54:42;;;;;;;2.92;1.95;;;1.80;1.00;;;;;;7386337;19;20014;-67
2023/02/26 12:57:51;;;;;;;2.03;1.20;;;1.70;1.00;;;;;;7262228;19;2004441;-68
2023/02/26 13:00:34;;;;;;;2.80;1.17;;;1.70;1.00;;;;;;7361971;19;20018;-67
2023/02/26 13:03:34;;;;;;;3.35;1.27;;;1.80;1.00;;;;;;7386436;19;20081;-68
2023/02/26 13:06:41;;;;;;;5.22;3.10;;;2.00;1.00;;;;;;7364377;19;20014;-68
2023/02/26 13:09:22;;;;;;;1.42;1.10;;;2.20;1.00;;;;;;7363456;19;20010;-68
2023/02/26 13:12:03;;;;;;;3.85;1.10;;;2.10;1.00;;;;;;7365758;19;20081;-67
2023/02/26 13:14:46;;;;;;;2.05;1.20;;;2.10;1.00;;;;;;7364640;19;20014;-67
2023/02/26 13:17:26;;;;;;;1.60;1.00;;;2.00;1.00;;;;;;7364575;19;20014;-68
2023/02/26 13:20:03;;;;;;;2.55;0.90;;;1.70;1.00;;;;;;7361237;19;20018;-68
2023/02/26 13:22:38;;;;;;;1.25;1.00;;;1.70;1.00;;;;;;7364877;19;20010;-67
2023/02/26 13:25:19;;;;;;;2.88;1.30;;;1.70;1.00;;;;;;7370193;19;20498;-68
2023/02/26 13:27:50;;;;;;;1.58;0.98;;;1.70;1.00;;;;;;7368108;19;20018;-68
2023/02/26 13:30:27;;;;;;;2.83;1.15;;;1.80;1.00;;;;;;7375733;19;20479;-67
2023/02/26 13:33:00;;;;;;;2.08;1.40;;;1.90;1.00;;;;;;7390317;19;20018;-67
2023/02/26 13:35:36;;;;;;;1.17;1.00;;;1.80;1.00;;;;;;7362837;19;20432;-67
2023/02/26 13:38:14;;;;;;;1.33;0.90;;;1.80;1.00;;;;;;7363375;19;20384;-67